Memphis, TN (37501)

3:28 PM CDT on April 28, 2017 (GMT -0500)
Tioga Environmental in the Pinch District | | Change Station
Active Advisory: Wind Advisory

Elev 230 ft 35.15 °N, 90.05 °W | Updated 29 seconds ago

Overcast
Overcast
81.9 °F
Feels Like 85 °F
N
10.7
Wind Variable Wind from ESE
Gusts 12.3 mph

Today
High -- | Low -- °F
--% Chance of Precip.
Yesterday
High -- | Low -- °F
Precip. -- in
Pressure 29.77 in
Visibility 10.0 miles
Clouds Few 2900 ft
Mostly Cloudy 3500 ft
Overcast 25000 ft
Heat Index 85 °F
Dew Point 69 °F
Humidity 66%
Rainfall 0.00 in
Snow Depth Not available.
6:12 AM 7:43 PM
Waxing Crescent, 8% visible
SPECI KMEM 282002Z 21016G22KT 10SM FEW029 BKN035 OVC250 28/22 A2977 RMK AO2 T02830222
Pressure 29.77 in
Visibility 10.0 miles
Clouds Few 2900 ft
Mostly Cloudy 3500 ft
Overcast 25000 ft
Heat Index 85 °F
Dew Point 69 °F
Humidity 66%
Rainfall 0.00 in
Snow Depth Not available.
6:12 AM 7:43 PM
Waxing Crescent, 8% visible
SPECI KMEM 282002Z 21016G22KT 10SM FEW029 BKN035 OVC250 28/22 A2977 RMK AO2 T02830222

Get Your Daily Forecast Email!

Thanks for signing up!

Be on the lookout for a verification email in your inbox.

You'll start receiving severe weather alerts in your inbox..

×

10-Day Weather Forecast

Almanac

Astronomy

Apr. 28, 2017 Rise Set
Actual Time
Civil Twilight
Nautical Twilight
Astronomical Twilight
Moon
Length of Visible Light
Length of Day
Tomorrow will be .
, % of the Moon is Illuminated

Today's Extremes

State Highs State Lows

Community

WunderPhotos

WunderBlog® & News

Nearby

Air Quality

  Air Quality AQ Index Pollutant
Not available.

Snow Depth

Station Depth Elevation

Earthquake Activity

City Distance Mag. Time & Date
Minimum magnitude displayed is 2.5.

Coastal Water Temperatures

Place Temperature

Stations

Nearby Weather Stations

Station Location Temp. Windchill Dew Point Humidity Wind Precip. Elev Updated Type
                   

Watches & Warnings

Wind Advisory
Issued: 1:55 PM CDT Apr. 28, 2017 – National Weather Service

... Wind Advisory in effect from 9 am to 7 PM CDT Saturday...

The National Weather Service in Memphis has issued a Wind
Advisory, which is in effect from 9 am to 7 PM CDT Saturday.

* Winds... south winds sustained of 20 to 30 mph... with gusts to
40 mph.

* Timing... 9 am CDT Saturday morning through 7 PM CDT Saturday
evening.

* Impacts... loose outdoor items will be vulnerable in the wind.
Driving may become hazardous... especially for high profile
vehicles on west to east roadways.

Precautionary/preparedness actions...

A Wind Advisory means that sustained winds of 25 to 39 mph are
expected... or gusts will range between 40 and 57 mph. Winds this
strong can make driving difficult... especially for high profile
vehicles. Use extra caution.



Jab